Time;durP1;ratioP1;P1;durP2;ratioP2;P2;SDS_P1;SDS_P2;PMS_P1;PMS_P2;Temp;Humidity;BMP_temperature;BMP_pressure;BME280_temperature;BME280_humidity;BME280_pressure;Samples;Min_cycle;Max_cycle;Signal;HPM_P1;HPM_P2
2021/03/01 00:01:18;;;;;;;0.70;0.63;;;;;;;4.75;62.42;101986.50;6257245;22;20008;-73
2021/03/01 00:03:50;;;;;;;2.83;1.52;;;;;;;4.79;63.01;101993.19;6277437;22;20019;-72
2021/03/01 00:06:16;;;;;;;1.40;1.30;;;;;;;4.75;63.32;101989.19;6255170;23;20446;-71
2021/03/01 00:08:44;;;;;;;1.05;0.90;;;;;;;4.74;62.65;101987.50;6253174;22;20024;-73
2021/03/01 00:11:19;;;;;;;;;;;;;;;;;;;;;
2021/03/01 00:13:48;;;;;;;1.65;1.55;;;;;;;4.61;62.80;101978.16;6254379;23;20024;-72
2021/03/01 00:16:13;;;;;;;2.17;2.00;;;;;;;4.66;63.71;101985.75;6256675;23;20012;-74
2021/03/01 00:18:39;;;;;;;2.00;1.20;;;;;;;4.57;63.99;101978.72;6253443;23;20016;-73
2021/03/01 00:21:04;;;;;;;1.90;1.30;;;;;;;4.59;64.07;101982.94;6253849;23;20031;-73
2021/03/01 00:23:30;;;;;;;1.63;1.52;;;;;;;4.58;63.31;101983.97;6255437;23;20027;-73
2021/03/01 00:25:58;;;;;;;1.40;1.35;;;;;;;4.55;63.89;101979.75;6256828;23;20020;-73
2021/03/01 00:28:24;;;;;;;1.10;1.10;;;;;;;4.53;63.30;101986.41;6250347;22;20000;-74
2021/03/01 00:30:49;;;;;;;1.23;1.13;;;;;;;4.50;63.29;101975.94;6252270;22;20062;-75
2021/03/01 00:33:15;;;;;;;1.02;0.98;;;;;;;4.47;63.40;101976.31;6251497;23;20020;-75
2021/03/01 00:35:43;;;;;;;1.30;1.20;;;;;;;4.46;64.38;101977.34;6256738;23;20099;-76
2021/03/01 00:38:12;;;;;;;1.05;0.70;;;;;;;4.44;63.88;101973.97;6250458;22;20010;-74
2021/03/01 00:40:37;;;;;;;1.27;1.13;;;;;;;4.39;63.54;101963.69;6254454;23;20028;-73
2021/03/01 00:43:07;;;;;;;2.67;1.75;;;;;;;4.39;64.03;101971.00;6256760;23;20598;-75
2021/03/01 00:45:41;;;;;;;1.13;1.13;;;;;;;4.34;64.71;101964.25;6255172;22;20097;-74
2021/03/01 00:48:07;;;;;;;1.08;1.08;;;;;;;4.32;65.27;101969.03;6279408;22;20070;-75
2021/03/01 00:50:32;;;;;;;1.85;1.35;;;;;;;4.20;64.18;101948.84;6227254;23;20004;-73
2021/03/01 00:53:24;;;;;;;0.88;0.88;;;;;;;4.19;63.90;101941.75;6248164;23;20008;-72
2021/03/01 00:55:52;;;;;;;3.00;1.63;;;;;;;4.26;64.53;101955.38;6250097;23;20012;-74
2021/03/01 00:58:19;;;;;;;2.20;1.33;;;;;;;4.22;65.40;101954.94;6254775;22;20012;-75
2021/03/01 01:00:55;;;;;;;2.67;1.05;;;;;;;4.18;64.62;101950.91;6247510;22;20012;-73
2021/03/01 01:03:20;;;;;;;2.08;1.63;;;;;;;4.12;64.95;101951.66;6228878;23;20012;-74
2021/03/01 01:05:46;;;;;;;1.25;1.02;;;;;;;4.10;65.06;101943.69;6249995;23;20339;-73
2021/03/01 01:08:12;;;;;;;1.35;1.25;;;;;;;3.99;64.96;101942.31;6247794;22;20066;-74
2021/03/01 01:10:38;;;;;;;1.30;1.20;;;;;;;4.07;65.59;101951.38;6279227;22;20012;-72
2021/03/01 01:13:04;;;;;;;1.50;1.40;;;;;;;4.05;66.17;101950.72;6252649;22;20004;-75
2021/03/01 01:15:30;;;;;;;0.98;0.98;;;;;;;3.91;65.63;101934.25;6254834;22;19996;-72
2021/03/01 01:17:59;;;;;;;1.83;1.35;;;;;;;3.94;65.60;101939.31;6255255;22;20388;-73
2021/03/01 01:20:24;;;;;;;0.80;0.80;;;;;;;3.97;66.26;101947.06;6249062;23;20015;-73
2021/03/01 01:22:50;;;;;;;0.68;0.60;;;;;;;3.95;65.65;101943.69;6253988;23;20004;-73
2021/03/01 01:25:17;;;;;;;1.00;1.00;;;;;;;3.94;65.39;101933.06;6280318;22;20019;-73
2021/03/01 01:27:43;;;;;;;0.80;0.80;;;;;;;3.89;65.58;101930.91;6255677;22;20004;-73
2021/03/01 01:30:10;;;;;;;2.15;1.70;;;;;;;3.95;65.26;101945.56;6252960;23;20000;-73
2021/03/01 01:32:36;;;;;;;3.83;2.85;;;;;;;3.92;66.21;101941.34;6280135;22;20015;-74
2021/03/01 01:35:11;;;;;;;2.78;2.58;;;;;;;3.85;66.21;101935.00;6251289;23;20004;-75
2021/03/01 01:37:37;;;;;;;2.23;2.03;;;;;;;3.84;67.15;101936.00;6255657;22;20004;-74
2021/03/01 01:40:07;;;;;;;1.58;1.48;;;;;;;3.82;66.32;101935.38;6253949;22;20014;-73
2021/03/01 01:42:35;;;;;;;2.55;2.05;;;;;;;3.79;66.73;101931.16;6253979;22;20060;-73
2021/03/01 01:45:05;;;;;;;3.85;3.50;;;;;;;3.77;66.97;101930.53;6255526;22;20016;-73
2021/03/01 01:47:30;;;;;;;4.05;3.70;;;;;;;3.65;67.75;101916.59;6256609;22;20018;-73
2021/03/01 01:49:59;;;;;;;2.78;2.15;;;;;;;3.58;67.38;101902.13;6251378;22;20003;-73
2021/03/01 01:52:24;;;;;;;2.65;1.88;;;;;;;3.67;66.99;101921.81;6249381;22;20000;-72
2021/03/01 01:55:00;;;;;;;;;;;;;;;;;;;;;
2021/03/01 01:57:38;;;;;;;2.20;2.03;;;;;;;3.60;67.13;101913.59;6257323;23;20027;-74
2021/03/01 02:00:28;;;;;;;6.63;4.47;;;;;;;3.63;67.64;101921.34;6254158;22;20003;-74
2021/03/01 02:03:13;;;;;;;3.40;3.20;;;;;;;3.58;68.46;101923.75;6257557;22;20007;-74
2021/03/01 02:05:41;;;;;;;3.38;3.08;;;;;;;3.57;67.63;101922.06;6257227;22;20004;-74
2021/03/01 02:08:26;;;;;;;2.85;2.65;;;;;;;3.57;67.77;101922.06;6255561;22;20032;-74
2021/03/01 02:11:02;;;;;;;2.72;2.53;;;;;;;3.56;67.87;101919.56;6251459;22;20395;-74
2021/03/01 02:13:45;;;;;;;6.10;2.15;;;;;;;3.54;68.78;101922.44;6256234;22;20008;-74
2021/03/01 02:16:36;;;;;;;1.48;1.38;;;;;;;3.52;67.29;101913.69;6257158;23;20004;-73
2021/03/01 02:19:11;;;;;;;1.63;1.52;;;;;;;3.37;68.82;101888.44;6235830;23;20008;-73
2021/03/01 02:21:46;;;;;;;2.15;1.95;;;;;;;3.42;67.63;101896.88;6254438;23;20042;-74
2021/03/01 02:24:23;;;;;;;3.03;2.85;;;;;;;3.49;68.87;101904.06;6252683;22;20016;-74
2021/03/01 02:26:53;;;;;;;2.30;2.20;;;;;;;3.39;68.27;101889.09;6259666;22;20004;-73
2021/03/01 02:29:21;;;;;;;3.83;3.60;;;;;;;3.39;69.34;101886.38;6254016;23;20004;-72
2021/03/01 02:31:47;;;;;;;5.75;3.90;;;;;;;3.37;69.00;101883.03;6253921;23;20034;-74
2021/03/01 02:34:18;;;;;;;4.72;4.32;;;;;;;3.35;69.26;101876.97;6257487;22;20004;-73
2021/03/01 02:36:52;;;;;;;4.70;4.30;;;;;;;3.42;69.16;101886.06;6258866;22;20042;-74
2021/03/01 02:39:21;;;;;;;5.75;4.90;;;;;;;3.41;70.72;101889.78;6253112;23;20087;-75
2021/03/01 02:41:57;;;;;;;6.43;5.97;;;;;;;3.42;70.85;101880.63;6258015;22;20026;-74
2021/03/01 02:44:23;;;;;;;8.40;6.18;;;;;;;3.47;70.13;101889.03;6253896;23;20004;-74
2021/03/01 02:46:51;;;;;;;7.32;6.32;;;;;;;3.41;71.39;101873.53;6254538;22;20016;-75
2021/03/01 02:49:17;;;;;;;4.72;4.43;;;;;;;3.47;70.86;101872.81;6253625;23;20007;-75
2021/03/01 02:51:47;;;;;;;5.55;5.15;;;;;;;3.61;71.37;101882.81;6250635;23;20008;-75
2021/03/01 02:54:16;;;;;;;9.65;5.15;;;;;;;3.82;70.77;101882.06;6254876;22;20079;-74
2021/03/01 02:57:01;;;;;;;6.15;4.25;;;;;;;4.09;71.77;101892.44;6255290;22;20011;-74
2021/03/01 02:59:30;;;;;;;5.20;4.80;;;;;;;4.12;70.11;101859.63;6253969;22;19996;-75
2021/03/01 03:02:25;;;;;;;7.18;6.45;;;;;;;4.37;70.43;101869.09;6250911;23;19996;-74
2021/03/01 03:04:55;;;;;;;6.28;5.63;;;;;;;4.66;70.33;101889.03;6254630;22;20000;-71
2021/03/01 03:07:24;;;;;;;5.32;5.03;;;;;;;4.76;69.71;101871.59;6255399;23;20058;-72
2021/03/01 03:09:50;;;;;;;5.78;5.28;;;;;;;4.95;70.05;101875.56;6257662;22;20016;-73
2021/03/01 03:12:16;;;;;;;7.30;6.30;;;;;;;5.07;70.24;101872.16;6256666;22;20008;-72
2021/03/01 03:14:45;;;;;;;8.48;6.70;;;;;;;5.19;69.59;101868.91;6228637;23;20008;-71
2021/03/01 03:17:12;;;;;;;10.52;6.95;;;;;;;5.28;69.36;101864.19;6256168;22;20008;-72
2021/03/01 03:19:40;;;;;;;9.93;7.65;;;;;;;5.37;69.63;101866.59;6251204;23;20019;-72
2021/03/01 03:22:06;;;;;;;7.38;5.88;;;;;;;5.45;70.10;101864.72;6255001;22;20046;-71
2021/03/01 03:24:31;;;;;;;5.35;4.97;;;;;;;5.52;69.61;101866.47;6253497;23;20008;-71
2021/03/01 03:26:57;;;;;;;15.52;9.98;;;;;;;5.66;69.37;101867.41;6253625;23;20012;-72
2021/03/01 03:29:22;;;;;;;11.73;7.63;;;;;;;5.69;69.48;101860.75;6255183;23;20007;-72
2021/03/01 03:31:48;;;;;;;11.05;8.45;;;;;;;5.74;69.63;101864.56;6252705;23;20014;-72
2021/03/01 03:34:14;;;;;;;8.23;7.40;;;;;;;5.80;69.55;101862.06;6256246;22;20074;-71
2021/03/01 03:36:46;;;;;;;5.38;5.07;;;;;;;5.84;69.09;101868.78;6255025;23;20008;-72
2021/03/01 03:39:14;;;;;;;5.65;5.18;;;;;;;5.87;69.12;101841.22;6254384;22;20042;-72
2021/03/01 03:41:41;;;;;;;10.82;8.57;;;;;;;5.91;69.19;101847.94;6254523;23;20007;-72
2021/03/01 03:44:11;;;;;;;6.63;6.22;;;;;;;5.98;68.85;101848.84;6252124;23;20003;-73
2021/03/01 03:46:39;;;;;;;12.45;8.70;;;;;;;6.02;69.09;101852.00;6250739;23;20477;-72
2021/03/01 03:49:08;;;;;;;8.68;7.38;;;;;;;6.02;69.10;101850.13;6252197;23;20015;-73
2021/03/01 03:51:34;;;;;;;9.10;6.18;;;;;;;6.02;69.50;101844.69;6255186;22;20008;-72
2021/03/01 03:54:07;;;;;;;5.70;5.20;;;;;;;6.06;68.89;101843.25;6251852;23;20004;-72
2021/03/01 03:56:35;;;;;;;5.93;5.43;;;;;;;6.09;69.14;101840.13;6255268;22;20019;-72
2021/03/01 03:59:04;;;;;;;7.30;6.70;;;;;;;6.11;68.82;101839.94;6255469;22;20008;-72
2021/03/01 04:01:32;;;;;;;20.42;10.55;;;;;;;6.16;69.53;101844.75;6253609;23;20006;-72
2021/03/01 04:04:02;;;;;;;12.43;8.00;;;;;;;6.17;69.26;101841.00;6251648;23;20435;-73
2021/03/01 04:06:31;;;;;;;7.40;6.47;;;;;;;6.21;69.41;101842.28;6252838;23;20082;-72
2021/03/01 04:08:57;;;;;;;5.97;5.47;;;;;;;6.22;69.19;101842.09;6250454;22;20016;-72
2021/03/01 04:11:26;;;;;;;8.35;7.65;;;;;;;6.25;69.08;101843.53;6253170;23;20028;-73
2021/03/01 04:13:54;;;;;;;10.18;7.85;;;;;;;6.25;69.26;101843.53;6255559;23;20007;-73
2021/03/01 04:16:24;;;;;;;6.63;6.05;;;;;;;6.27;69.39;101846.91;6256740;23;20012;-72
2021/03/01 04:18:55;;;;;;;16.75;10.27;;;;;;;6.27;69.05;101836.88;6254702;23;20004;-71
2021/03/01 04:21:22;;;;;;;13.32;9.43;;;;;;;6.28;69.65;101848.59;6256822;23;20030;-71
2021/03/01 04:23:49;;;;;;;11.20;8.77;;;;;;;6.32;69.29;101849.84;6202678;23;20008;-70
2021/03/01 04:26:16;;;;;;;8.52;7.72;;;;;;;6.31;69.10;101845.47;6255859;23;20066;-72
2021/03/01 04:28:42;;;;;;;12.60;7.72;;;;;;;6.33;69.49;101846.09;6245499;23;20020;-71
2021/03/01 04:31:09;;;;;;;7.40;6.55;;;;;;;6.38;69.29;101849.06;6252777;23;20053;-72
2021/03/01 04:33:36;;;;;;;7.82;6.57;;;;;;;6.41;68.77;101843.19;6226498;23;20008;-72
2021/03/01 04:36:04;;;;;;;8.25;6.97;;;;;;;6.42;69.36;101844.84;6223998;23;20036;-72
2021/03/01 04:38:33;;;;;;;10.15;7.72;;;;;;;6.39;68.88;101834.41;6252605;23;20008;-74
2021/03/01 04:41:03;;;;;;;7.50;6.90;;;;;;;6.45;69.29;101841.75;6226046;23;20019;-72
2021/03/01 04:43:30;;;;;;;10.20;7.65;;;;;;;6.47;68.83;101841.56;6253706;23;20000;-71
2021/03/01 04:45:56;;;;;;;15.93;8.98;;;;;;;6.53;69.32;101845.34;6254633;23;20379;-71
2021/03/01 04:48:24;;;;;;;12.88;8.32;;;;;;;6.56;69.32;101844.94;6252794;23;20004;-71
2021/03/01 04:50:52;;;;;;;17.67;10.00;;;;;;;6.60;69.22;101846.16;6226789;23;20022;-72
2021/03/01 04:53:18;;;;;;;9.25;7.97;;;;;;;6.54;69.35;101827.97;6253817;23;20007;-72
2021/03/01 04:55:49;;;;;;;15.93;11.57;;;;;;;6.59;69.13;101833.66;6200911;23;20016;-72
2021/03/01 04:58:21;;;;;;;13.82;9.98;;;;;;;6.60;69.29;101829.84;6251149;23;20004;-72
2021/03/01 05:00:47;;;;;;;8.77;7.88;;;;;;;6.62;69.38;101834.06;6227415;23;20001;-71
2021/03/01 05:03:15;;;;;;;12.38;7.15;;;;;;;6.71;69.10;101839.31;6247398;23;20429;-72
2021/03/01 05:05:41;;;;;;;12.70;9.85;;;;;;;6.64;69.51;101836.56;6221435;23;20000;-71
2021/03/01 05:08:17;;;;;;;17.95;10.48;;;;;;;6.77;69.27;101846.66;6252730;22;20007;-72
2021/03/01 05:10:43;;;;;;;;;;;;;;;6.78;68.93;101841.00;6223662;23;20008;-72
2021/03/01 05:13:26;;;;;;;25.73;11.68;;;;;;;6.67;69.06;101824.44;6219782;23;20239;-71
2021/03/01 05:15:52;;;;;;;21.98;10.77;;;;;;;6.70;69.37;101830.34;6195514;23;20486;-71
2021/03/01 05:18:18;;;;;;;19.48;12.23;;;;;;;6.80;69.58;101841.66;6193185;23;20135;-71
2021/03/01 05:20:44;;;;;;;19.85;11.93;;;;;;;6.80;69.55;101840.78;6224358;23;20001;-71
2021/03/01 05:23:09;;;;;;;20.30;13.38;;;;;;;6.84;69.60;101835.78;6196373;23;20012;-72
2021/03/01 05:25:35;;;;;;;34.42;16.02;;;;;;;6.85;69.69;101834.72;6224647;23;20011;-72
2021/03/01 05:28:01;;;;;;;28.63;13.57;;;;;;;6.88;69.84;101837.03;6225399;23;20005;-71
2021/03/01 05:30:27;;;;;;;28.65;13.27;;;;;;;6.88;69.87;101837.88;6224027;23;20503;-72
2021/03/01 05:32:52;;;;;;;27.95;13.55;;;;;;;6.86;70.01;101833.69;6227243;23;20040;-73
2021/03/01 05:35:18;;;;;;;21.00;11.60;;;;;;;6.87;69.82;101835.38;6196585;23;20008;-72
2021/03/01 05:37:45;;;;;;;21.88;11.25;;;;;;;6.80;69.38;101824.47;6227913;23;20059;-75
2021/03/01 05:40:11;;;;;;;21.67;11.80;;;;;;;6.88;69.96;101832.44;6196541;23;20011;-72
2021/03/01 05:42:39;;;;;;;23.55;14.05;;;;;;;6.91;69.68;101833.91;6225149;23;20498;-70
2021/03/01 05:45:07;;;;;;;30.27;13.63;;;;;;;6.94;70.05;101837.06;6194368;23;20000;-71
2021/03/01 05:47:34;;;;;;;29.92;14.35;;;;;;;6.94;70.01;101841.66;6224830;23;20001;-70
2021/03/01 05:50:00;;;;;;;24.70;12.68;;;;;;;6.97;70.06;101820.31;6196402;23;20301;-70
2021/03/01 05:52:28;;;;;;;29.63;13.27;;;;;;;6.98;70.18;101832.06;6168230;23;20057;-70
2021/03/01 05:54:54;;;;;;;16.55;9.35;;;;;;;7.00;70.04;101827.22;6225382;23;20004;-70
2021/03/01 05:57:22;;;;;;;17.60;12.15;;;;;;;7.00;69.67;101827.22;6213192;23;20040;-72
2021/03/01 05:59:48;;;;;;;17.58;10.55;;;;;;;7.02;69.63;101833.28;6220355;23;20074;-71
2021/03/01 06:02:20;;;;;;;23.27;12.18;;;;;;;7.07;69.29;101835.41;6222054;23;20007;-72
2021/03/01 06:04:45;;;;;;;22.05;12.30;;;;;;;7.04;69.93;101825.78;6223345;23;19997;-72
2021/03/01 06:07:18;;;;;;;23.02;12.35;;;;;;;7.03;69.45;101829.53;6192724;23;20005;-70
2021/03/01 06:09:44;;;;;;;23.60;11.23;;;;;;;7.01;70.05;101826.19;6241753;22;20016;-71
2021/03/01 06:12:10;;;;;;;28.70;15.18;;;;;;;6.95;69.56;101816.97;6223979;23;20020;-71
2021/03/01 06:14:46;;;;;;;;;;;;;;;;;;;;;
2021/03/01 06:17:21;;;;;;;22.92;12.95;;;;;;;6.99;69.69;101811.94;6204881;23;20040;-72
2021/03/01 06:19:57;;;;;;;15.30;9.55;;;;;;;6.99;69.44;101811.94;6226671;23;20423;-70
2021/03/01 06:22:23;;;;;;;;;;;;;;;6.99;69.24;101817.38;6245956;23;20035;-72
2021/03/01 06:25:08;;;;;;;9.13;8.20;;;;;;;7.01;69.53;101822.63;6228145;23;19908;-71
2021/03/01 06:28:02;;;;;;;26.07;13.07;;;;;;;7.03;69.45;101820.53;6223291;23;20000;-71
2021/03/01 06:30:45;;;;;;;15.82;9.27;;;;;;;6.96;69.27;101817.81;6242367;23;20015;-70
2021/03/01 06:33:17;;;;;;;28.38;13.10;;;;;;;6.97;69.25;101833.09;6226314;23;20019;-70
2021/03/01 06:35:56;;;;;;;26.25;12.70;;;;;;;6.82;69.86;101809.63;6227416;23;20082;-71
2021/03/01 06:38:30;;;;;;;27.83;13.68;;;;;;;6.84;69.53;101819.47;6226879;23;20035;-70
2021/03/01 06:41:08;;;;;;;26.58;12.98;;;;;;;6.87;69.31;101830.75;6224970;23;20010;-69
2021/03/01 06:43:34;;;;;;;19.15;10.25;;;;;;;6.81;69.65;101826.97;6251241;23;20052;-71
2021/03/01 06:46:08;;;;;;;21.42;10.85;;;;;;;6.85;69.40;101830.16;6252726;23;20423;-71
2021/03/01 06:48:34;;;;;;;25.15;12.73;;;;;;;6.75;69.17;101806.06;6227879;23;20000;-70
2021/03/01 06:51:02;;;;;;;21.83;11.60;;;;;;;6.81;69.64;101816.09;6228743;23;20031;-70
2021/03/01 06:53:27;;;;;;;13.05;9.35;;;;;;;6.86;69.51;101833.69;6250234;23;20147;-72
2021/03/01 06:56:05;;;;;;;16.45;8.50;;;;;;;6.88;69.30;101832.44;6253801;23;20012;-70
2021/03/01 06:58:43;;;;;;;30.48;13.57;;;;;;;6.78;69.84;101808.38;6254782;23;20073;-71
2021/03/01 07:01:21;;;;;;;24.83;12.60;;;;;;;6.82;69.28;101823.22;6250759;23;20010;-72
2021/03/01 07:03:50;;;;;;;15.27;9.18;;;;;;;6.79;69.43;101828.22;6228343;23;20007;-72
2021/03/01 07:06:17;;;;;;;24.33;11.50;;;;;;;6.79;69.82;101826.38;6228269;23;20330;-72
2021/03/01 07:08:52;;;;;;;28.90;13.35;;;;;;;6.79;69.36;101817.34;6247079;22;20040;-71
2021/03/01 07:11:30;;;;;;;25.35;11.98;;;;;;;6.87;69.61;101829.94;6197324;23;20043;-73
2021/03/01 07:14:05;;;;;;;17.05;10.07;;;;;;;6.89;69.51;101833.28;6220707;23;20008;-72
2021/03/01 07:16:46;;;;;;;9.10;6.45;;;;;;;6.93;69.19;101834.53;6225632;23;20011;-72
2021/03/01 07:19:17;;;;;;;7.30;6.47;;;;;;;6.93;68.86;101842.69;6197007;23;20066;-72
2021/03/01 07:21:46;;;;;;;14.70;8.27;;;;;;;6.94;69.09;101842.50;6198086;23;20014;-73
2021/03/01 07:24:16;;;;;;;14.00;8.82;;;;;;;6.96;69.15;101845.81;6223425;23;20416;-71
2021/03/01 07:26:45;;;;;;;27.10;13.07;;;;;;;7.04;69.37;101846.69;6225662;23;20024;-74
2021/03/01 07:29:13;;;;;;;25.30;10.52;;;;;;;7.06;69.47;101844.59;6173787;23;20016;-72
2021/03/01 07:31:57;;;;;;;15.50;8.68;;;;;;;7.13;68.89;101845.44;6199646;23;20035;-72
2021/03/01 07:34:23;;;;;;;23.52;11.65;;;;;;;7.14;69.05;101847.09;6194345;23;20031;-72
2021/03/01 07:36:49;;;;;;;8.52;7.32;;;;;;;7.14;69.24;101847.97;6225747;23;20096;-72
2021/03/01 07:39:15;;;;;;;22.80;11.82;;;;;;;7.14;68.66;101849.81;6218988;23;20000;-72
2021/03/01 07:41:42;;;;;;;10.85;7.70;;;;;;;7.14;68.70;101847.97;6221550;23;20019;-75
2021/03/01 07:44:09;;;;;;;22.08;11.02;;;;;;;7.13;68.21;101846.28;6222423;23;19997;-75
2021/03/01 07:46:48;;;;;;;23.67;12.23;;;;;;;7.11;68.67;101837.50;6222004;23;20000;-75
2021/03/01 07:49:48;;;;;;;21.80;10.20;;;;;;;7.21;68.67;101852.56;6194635;23;20301;-75
2021/03/01 07:52:27;;;;;;;26.83;13.43;;;;;;;7.00;68.95;101819.06;6224081;23;20000;-71
2021/03/01 07:54:58;;;;;;;24.27;12.50;;;;;;;7.12;68.91;101832.88;6220948;23;20001;-76
2021/03/01 07:57:25;;;;;;;27.17;14.43;;;;;;;7.13;69.22;101834.56;6196871;23;20016;-71
2021/03/01 07:59:51;;;;;;;30.02;14.82;;;;;;;7.18;68.50;101853.81;6197916;23;20565;-73
2021/03/01 08:02:52;;;;;;;28.58;13.25;;;;;;;7.12;68.76;101855.47;6167432;23;20008;-74
2021/03/01 08:05:32;;;;;;;35.05;16.33;;;;;;;7.07;69.27;101855.28;6198518;23;20062;-73
2021/03/01 08:07:59;;;;;;;28.10;14.38;;;;;;;6.93;69.71;101843.53;6201414;23;20016;-74
2021/03/01 08:10:29;;;;;;;35.15;14.73;;;;;;;6.98;69.79;101854.63;6194826;23;20016;-72
2021/03/01 08:12:59;;;;;;;26.77;14.32;;;;;;;6.94;69.49;101847.09;6192715;23;20040;-71
2021/03/01 08:15:36;;;;;;;24.48;13.68;;;;;;;6.95;69.60;101851.47;6223086;23;20000;-73
2021/03/01 08:18:03;;;;;;;30.65;14.43;;;;;;;6.90;70.11;101841.22;6223989;23;20032;-72
2021/03/01 08:20:34;;;;;;;25.25;12.63;;;;;;;7.00;69.80;101840.81;6219410;23;20009;-72
2021/03/01 08:23:14;;;;;;;28.10;12.43;;;;;;;7.07;69.76;101844.41;6198412;23;20013;-75
2021/03/01 08:25:46;;;;;;;31.02;15.57;;;;;;;7.14;69.99;101847.97;6220473;23;20050;-73
2021/03/01 08:28:24;;;;;;;33.33;15.43;;;;;;;7.15;69.87;101844.19;6218604;23;20012;-74
2021/03/01 08:30:52;;;;;;;27.55;12.95;;;;;;;7.24;69.55;101846.69;6225113;23;20060;-75
2021/03/01 08:33:18;;;;;;;20.73;9.77;;;;;;;7.33;69.46;101840.84;6225076;23;20009;-74
2021/03/01 08:35:50;;;;;;;25.52;12.57;;;;;;;7.40;69.01;101840.81;6220482;23;20027;-74
2021/03/01 08:38:58;;;;;;;27.17;14.15;;;;;;;7.51;68.68;101839.38;6196930;23;20012;-73
2021/03/01 08:41:30;;;;;;;29.10;13.63;;;;;;;7.59;68.69;101843.75;6197350;23;20092;-77
2021/03/01 08:43:59;;;;;;;23.90;13.55;;;;;;;7.54;68.89;101829.94;6224390;23;20072;-74
2021/03/01 08:46:39;;;;;;;30.77;14.38;;;;;;;7.56;69.23;101822.41;6198683;23;20004;-74
2021/03/01 08:49:33;;;;;;;28.00;14.05;;;;;;;7.83;68.55;101851.25;6222788;23;20007;-74
2021/03/01 08:52:12;;;;;;;;;;;;;;;;;;;;;
2021/03/01 08:54:38;;;;;;;29.90;14.52;;;;;;;7.89;68.23;101829.69;6224976;23;20028;-73
2021/03/01 08:57:06;;;;;;;27.63;13.45;;;;;;;8.01;68.16;101830.69;6197638;23;20016;-72
2021/03/01 08:59:32;;;;;;;21.23;12.82;;;;;;;8.06;67.86;101821.84;6223180;23;20000;-73
2021/03/01 09:01:58;;;;;;;48.58;17.17;;;;;;;8.16;66.71;101834.00;6190755;23;20012;-72
2021/03/01 09:04:23;;;;;;;28.60;12.93;;;;;;;8.20;67.60;101832.47;6195664;23;20004;-73
2021/03/01 09:06:49;;;;;;;33.65;15.95;;;;;;;8.32;66.95;101834.53;6217167;23;20060;-73
2021/03/01 09:09:17;;;;;;;33.13;16.50;;;;;;;8.43;66.86;101842.03;6227239;22;20020;-74
2021/03/01 09:11:43;;;;;;;39.50;17.42;;;;;;;8.53;66.57;101828.81;6226371;23;20066;-74
2021/03/01 09:14:13;;;;;;;34.63;14.52;;;;;;;8.55;65.89;101832.13;6245608;23;19996;-74
2021/03/01 09:16:44;;;;;;;33.80;17.45;;;;;;;8.58;65.45;101824.59;6224508;23;20001;-73
2021/03/01 09:19:12;;;;;;;31.63;16.02;;;;;;;8.63;65.90;101827.47;6250423;23;20026;-72
2021/03/01 09:21:41;;;;;;;37.28;16.67;;;;;;;8.77;65.16;101829.09;6252050;23;20000;-74
2021/03/01 09:24:11;;;;;;;23.70;12.43;;;;;;;8.86;65.97;101833.25;6252609;23;19996;-75
2021/03/01 09:26:39;;;;;;;24.00;12.68;;;;;;;8.90;64.93;101820.81;6225280;23;20000;-72
2021/03/01 09:29:09;;;;;;;29.58;14.65;;;;;;;9.01;64.64;101823.88;6250329;23;20314;-75
2021/03/01 09:31:40;;;;;;;34.13;16.15;;;;;;;9.06;64.25;101826.78;6254978;23;20000;-76
2021/03/01 09:34:10;;;;;;;28.75;14.02;;;;;;;9.38;64.32;101830.31;6255802;23;20008;-80
2021/03/01 09:36:36;;;;;;;30.15;14.63;;;;;;;9.79;64.26;101836.22;6230037;23;20016;-77
2021/03/01 09:39:05;;;;;;;29.67;15.32;;;;;;;9.89;62.90;101825.59;6200654;23;20012;-75
2021/03/01 09:41:38;;;;;;;29.27;14.27;;;;;;;9.91;62.06;101820.72;6255411;23;20094;-75
2021/03/01 09:44:04;;;;;;;21.48;13.35;;;;;;;10.33;62.20;101830.13;6227103;23;19996;-76
2021/03/01 09:46:31;;;;;;;26.98;14.18;;;;;;;10.84;62.12;101823.34;6229317;23;20008;-73
2021/03/01 09:49:08;;;;;;;23.95;11.88;;;;;;;11.56;61.26;101827.84;6226475;23;20068;-72
2021/03/01 09:51:37;;;;;;;29.27;14.80;;;;;;;12.82;60.58;101817.28;6227897;23;20002;-74
2021/03/01 09:54:08;;;;;;;21.95;13.48;;;;;;;14.73;59.07;101824.41;6248388;23;20011;-72
2021/03/01 09:56:47;;;;;;;22.85;11.73;;;;;;;16.60;55.94;101827.25;6220076;23;20043;-75
2021/03/01 09:59:48;;;;;;;16.35;10.48;;;;;;;17.79;52.09;101824.22;6254432;23;20020;-73
2021/03/01 10:02:40;;;;;;;23.52;12.63;;;;;;;18.11;46.23;101816.69;6227034;23;20063;-72
2021/03/01 10:05:11;;;;;;;16.90;10.43;;;;;;;18.25;46.87;101823.25;6247033;23;20000;-74
2021/03/01 10:07:52;;;;;;;15.02;10.30;;;;;;;18.98;45.36;101812.56;6257847;23;20011;-78
2021/03/01 10:10:18;;;;;;;15.65;11.50;;;;;;;20.12;43.50;101817.81;6228989;23;20070;-74
2021/03/01 10:12:49;;;;;;;14.57;10.95;;;;;;;21.10;41.01;101806.97;6256215;23;20012;-77
2021/03/01 10:15:17;;;;;;;12.43;9.18;;;;;;;21.92;38.97;101820.53;6255791;23;20011;-77
2021/03/01 10:17:45;;;;;;;11.82;7.53;;;;;;;22.25;38.54;101828.75;6231094;23;20035;-76
2021/03/01 10:20:13;;;;;;;12.70;9.48;;;;;;;22.08;36.62;101821.84;6229177;23;20441;-72
2021/03/01 10:22:59;;;;;;;7.72;7.03;;;;;;;22.40;37.61;101831.25;6255974;23;20369;-73
2021/03/01 10:25:50;;;;;;;8.90;8.00;;;;;;;23.01;36.19;101826.19;6255556;23;20062;-74
2021/03/01 10:28:25;;;;;;;13.10;9.77;;;;;;;23.67;35.72;101830.38;6197122;23;20015;-74
2021/03/01 10:31:00;;;;;;;10.87;9.67;;;;;;;24.26;34.49;101832.09;6229129;23;20064;-75
2021/03/01 10:33:29;;;;;;;12.57;9.43;;;;;;;24.63;32.29;101827.06;6204862;23;20016;-75
2021/03/01 10:36:11;;;;;;;15.15;10.45;;;;;;;24.75;29.71;101824.47;6255145;23;20038;-76
2021/03/01 10:39:17;;;;;;;11.00;8.38;;;;;;;24.70;30.87;101827.41;6254678;23;20390;-76
2021/03/01 10:41:47;;;;;;;7.82;7.22;;;;;;;24.52;31.00;101832.94;6209376;23;20316;-76
2021/03/01 10:44:13;;;;;;;7.28;6.68;;;;;;;23.76;30.83;101838.78;6255402;23;20035;-76
2021/03/01 10:46:45;;;;;;;10.23;9.30;;;;;;;22.81;30.85;101830.31;6255365;23;20000;-75
2021/03/01 10:49:24;;;;;;;12.45;10.48;;;;;;;22.42;31.44;101831.75;6256106;23;20000;-78
2021/03/01 10:51:54;;;;;;;24.08;12.60;;;;;;;22.59;30.26;101805.16;6256049;23;20008;-77
2021/03/01 10:54:20;;;;;;;16.17;9.43;;;;;;;23.25;31.40;101827.03;6230491;23;20024;-76
2021/03/01 10:56:48;;;;;;;12.20;10.07;;;;;;;24.25;29.50;101838.81;6227848;23;20016;-78
2021/03/01 10:59:14;;;;;;;16.30;11.57;;;;;;;24.76;27.97;101825.28;6255984;23;20481;-78
2021/03/01 11:01:42;;;;;;;10.38;9.18;;;;;;;25.24;27.61;101821.44;6253427;23;20008;-78
2021/03/01 11:04:09;;;;;;;12.95;10.52;;;;;;;25.67;26.78;101830.88;6255676;23;20000;-76
2021/03/01 11:06:35;;;;;;;12.30;9.75;;;;;;;26.22;26.47;101820.75;6203751;23;20004;-78
2021/03/01 11:09:08;;;;;;;12.55;10.27;;;;;;;26.57;25.78;101824.13;6256012;22;20011;-77
2021/03/01 11:11:34;;;;;;;14.50;9.30;;;;;;;26.93;25.39;101828.31;6258002;23;20074;-77
2021/03/01 11:14:05;;;;;;;5.65;5.15;;;;;;;27.50;25.36;101831.56;6254266;23;20008;-76
2021/03/01 11:16:36;;;;;;;9.40;8.52;;;;;;;28.00;24.58;101822.00;6254714;23;20000;-77
2021/03/01 11:19:03;;;;;;;8.20;7.63;;;;;;;28.52;23.58;101813.97;6253457;23;20000;-78
2021/03/01 11:21:31;;;;;;;14.00;7.90;;;;;;;28.80;23.27;101819.66;6228471;23;20373;-78
2021/03/01 11:23:57;;;;;;;9.57;8.05;;;;;;;29.20;23.14;101826.38;6254912;23;20003;-75
2021/03/01 11:26:27;;;;;;;6.60;5.95;;;;;;;29.74;22.91;101834.25;6253500;23;20008;-76
2021/03/01 11:29:00;;;;;;;8.02;7.43;;;;;;;30.15;22.02;101824.78;6227368;23;20087;-74
2021/03/01 11:31:32;;;;;;;7.20;6.60;;;;;;;30.53;22.20;101814.78;6204802;23;20012;-78
2021/03/01 11:33:59;;;;;;;8.52;7.78;;;;;;;30.60;20.79;101823.41;6223562;23;20000;-75
2021/03/01 11:36:29;;;;;;;7.78;7.38;;;;;;;30.83;20.64;101822.69;6228173;23;20011;-75
2021/03/01 11:38:57;;;;;;;9.57;7.78;;;;;;;31.11;20.38;101820.44;6226246;23;20008;-75
2021/03/01 11:41:32;;;;;;;10.05;9.20;;;;;;;31.28;19.32;101813.50;6226033;23;20012;-74
2021/03/01 11:44:00;;;;;;;6.00;5.70;;;;;;;31.52;20.39;101821.97;6225117;23;20015;-76
2021/03/01 11:46:27;;;;;;;7.70;7.00;;;;;;;31.88;19.77;101811.28;6230314;23;20008;-75